Time;durP1;ratioP1;P1;durP2;ratioP2;P2;SDS_P1;SDS_P2;PMS_P1;PMS_P2;Temp;Humidity;BMP_temperature;BMP_pressure;BME280_temperature;BME280_humidity;BME280_pressure;Samples;Min_cycle;Max_cycle;Signal;HPM_P1;HPM_P2
2022/05/28 00:00:05;;;;;;;11.27;1.63;;;11.60;99.90;;;;;;4965105;28;20102;-43
2022/05/28 00:02:32;;;;;;;8.93;1.60;;;11.60;99.90;;;;;;4964024;28;20046;-43
2022/05/28 00:04:57;;;;;;;6.55;1.80;;;11.60;99.90;;;;;;4982410;28;20066;-42
2022/05/28 00:07:23;;;;;;;13.80;2.17;;;11.50;99.90;;;;;;4960950;28;20042;-43
2022/05/28 00:09:50;;;;;;;12.93;1.40;;;11.50;99.90;;;;;;4971627;28;20054;-43
2022/05/28 00:12:15;;;;;;;10.82;1.60;;;11.50;99.90;;;;;;4972039;28;20098;-43
2022/05/28 00:14:41;;;;;;;13.48;1.98;;;11.40;99.90;;;;;;4986840;28;20078;-43
2022/05/28 00:17:10;;;;;;;8.52;1.55;;;11.40;99.90;;;;;;4975130;28;20065;-43
2022/05/28 00:19:35;;;;;;;8.55;1.40;;;11.30;99.90;;;;;;4970968;28;20059;-43
2022/05/28 00:22:01;;;;;;;13.00;1.92;;;11.30;99.90;;;;;;4970309;28;20050;-43
2022/05/28 00:24:27;;;;;;;10.15;1.83;;;11.30;99.90;;;;;;4969181;28;20078;-43
2022/05/28 00:26:53;;;;;;;9.63;1.67;;;11.20;99.90;;;;;;4958103;28;20059;-43
2022/05/28 00:29:19;;;;;;;5.68;1.63;;;11.20;99.90;;;;;;4969572;28;20069;-43
2022/05/28 00:31:44;;;;;;;8.45;1.52;;;11.20;99.90;;;;;;4985033;28;20494;-43
2022/05/28 00:34:13;;;;;;;8.70;1.45;;;11.10;99.90;;;;;;4990009;28;20043;-42
2022/05/28 00:36:40;;;;;;;10.23;1.70;;;11.20;99.90;;;;;;4981278;28;20050;-43
2022/05/28 00:39:06;;;;;;;8.98;1.65;;;11.20;99.90;;;;;;4988768;28;20082;-42
2022/05/28 00:41:34;;;;;;;11.88;1.60;;;11.10;99.90;;;;;;4988596;28;20073;-43
2022/05/28 00:43:59;;;;;;;9.05;1.50;;;11.10;99.90;;;;;;4989417;28;20156;-43
2022/05/28 00:46:26;;;;;;;11.82;1.15;;;11.00;99.90;;;;;;4980717;28;20634;-43
2022/05/28 00:48:57;;;;;;;11.23;1.52;;;11.00;99.90;;;;;;4986010;28;20401;-43
2022/05/28 00:51:28;;;;;;;9.55;1.42;;;10.90;99.90;;;;;;4990281;28;20608;-43
2022/05/28 00:53:59;;;;;;;10.13;1.35;;;10.90;99.90;;;;;;4976526;28;20494;-43
2022/05/28 00:56:27;;;;;;;9.30;1.55;;;10.80;99.90;;;;;;4978646;28;20378;-44
2022/05/28 00:58:53;;;;;;;10.65;2.15;;;10.90;99.90;;;;;;4985225;28;20140;-42
2022/05/28 01:01:22;;;;;;;8.20;1.83;;;10.80;99.90;;;;;;4986104;28;20058;-42
2022/05/28 01:04:18;;;;;;;10.73;1.85;;;10.80;99.90;;;;;;4974139;28;20046;-42
2022/05/28 01:06:46;;;;;;;10.65;1.63;;;10.70;99.90;;;;;;4960772;28;20050;-42
2022/05/28 01:09:28;;;;;;;6.80;1.33;;;10.70;99.90;;;;;;4982575;28;20526;-42
2022/05/28 01:11:59;;;;;;;9.90;1.33;;;10.70;99.90;;;;;;4971174;28;20047;-42
2022/05/28 01:14:41;;;;;;;9.02;1.90;;;10.70;99.90;;;;;;4987515;28;20104;-43
2022/05/28 01:17:10;;;;;;;8.32;1.33;;;10.70;99.90;;;;;;4966673;28;20049;-43
2022/05/28 01:19:59;;;;;;;9.32;1.77;;;10.70;99.90;;;;;;4989630;28;20097;-43
2022/05/28 01:22:52;;;;;;;8.80;1.58;;;10.70;99.90;;;;;;4976426;28;20042;-43
2022/05/28 01:25:39;;;;;;;8.57;1.65;;;10.70;99.90;;;;;;4987656;28;20367;-43
2022/05/28 01:28:09;;;;;;;9.27;1.48;;;10.70;99.90;;;;;;4952233;28;20138;-43
2022/05/28 01:30:38;;;;;;;13.07;1.70;;;10.60;99.90;;;;;;4983357;28;20077;-42
2022/05/28 01:33:06;;;;;;;10.60;1.35;;;10.60;99.90;;;;;;4969654;28;20047;-43
2022/05/28 01:35:32;;;;;;;12.18;1.75;;;10.60;99.90;;;;;;4969588;28;20350;-43
2022/05/28 01:38:00;;;;;;;11.32;1.88;;;10.60;99.90;;;;;;4962623;28;20491;-43
2022/05/28 01:40:27;;;;;;;12.10;1.52;;;10.60;99.90;;;;;;4991723;28;20417;-42
2022/05/28 01:42:55;;;;;;;11.15;1.35;;;10.60;99.90;;;;;;4991197;28;20042;-43
2022/05/28 01:45:26;;;;;;;10.38;1.63;;;10.60;99.90;;;;;;4993412;28;20109;-43
2022/05/28 01:47:54;;;;;;;11.17;1.80;;;10.60;99.90;;;;;;4982614;28;20038;-43
2022/05/28 01:50:24;;;;;;;13.68;2.00;;;10.60;99.90;;;;;;4992124;28;20345;-43
2022/05/28 01:52:52;;;;;;;10.38;2.00;;;10.60;99.90;;;;;;4992681;28;20421;-43
2022/05/28 01:55:21;;;;;;;7.78;1.50;;;10.60;99.90;;;;;;4992973;28;20498;-43
2022/05/28 01:57:48;;;;;;;9.80;1.90;;;10.60;99.90;;;;;;4982763;28;20060;-42
2022/05/28 02:00:14;;;;;;;11.13;2.05;;;10.60;99.90;;;;;;4992856;28;20054;-43
2022/05/28 02:02:40;;;;;;;11.98;1.92;;;10.50;99.90;;;;;;4990932;28;20042;-43
2022/05/28 02:05:06;;;;;;;10.57;2.30;;;10.50;99.90;;;;;;4981315;28;20039;-43
2022/05/28 02:07:32;;;;;;;11.23;2.20;;;10.50;99.90;;;;;;4964382;28;20464;-43
2022/05/28 02:10:03;;;;;;;14.10;2.20;;;10.40;99.90;;;;;;4993234;28;20092;-43
2022/05/28 02:12:53;;;;;;;8.48;1.80;;;10.50;99.90;;;;;;4986202;28;20060;-42
2022/05/28 02:15:48;;;;;;;12.43;1.92;;;10.50;99.90;;;;;;4991703;28;20089;-42
2022/05/28 02:18:47;;;;;;;13.70;1.95;;;10.40;99.90;;;;;;4963297;28;20086;-42
2022/05/28 02:21:46;;;;;;;10.15;2.28;;;10.60;99.90;;;;;;4973578;28;20521;-42
2022/05/28 02:24:39;;;;;;;13.30;2.25;;;10.50;99.90;;;;;;4972362;28;20057;-43
2022/05/28 02:27:12;;;;;;;12.65;2.45;;;10.50;99.90;;;;;;4976489;28;20061;-42
2022/05/28 02:29:38;;;;;;;12.63;2.13;;;10.60;99.90;;;;;;4984735;28;20411;-43
2022/05/28 02:32:20;;;;;;;11.68;2.30;;;10.50;99.90;;;;;;4972845;28;20038;-42
2022/05/28 02:34:45;;;;;;;13.75;2.85;;;10.60;99.90;;;;;;4983964;28;20065;-42
2022/05/28 02:37:14;;;;;;;12.02;2.47;;;10.60;99.90;;;;;;4982501;28;20046;-42
2022/05/28 02:39:39;;;;;;;10.48;1.88;;;10.60;99.90;;;;;;4992499;28;20092;-42
2022/05/28 02:42:07;;;;;;;10.98;2.30;;;10.60;99.90;;;;;;4991787;28;20129;-42
2022/05/28 02:44:33;;;;;;;12.02;2.20;;;10.70;99.90;;;;;;4992494;28;20384;-42
2022/05/28 02:46:59;;;;;;;10.73;1.88;;;10.60;99.90;;;;;;4975573;28;20054;-42
2022/05/28 02:49:25;;;;;;;16.80;2.40;;;10.50;99.90;;;;;;4953258;28;20071;-42
2022/05/28 02:51:52;;;;;;;11.77;2.05;;;10.50;99.90;;;;;;4953563;28;20051;-42
2022/05/28 02:54:19;;;;;;;14.90;2.63;;;10.50;99.90;;;;;;4970776;28;20047;-41
2022/05/28 02:56:46;;;;;;;12.55;3.03;;;10.50;99.90;;;;;;4960156;28;20141;-42
2022/05/28 02:59:12;;;;;;;11.15;2.88;;;10.40;99.90;;;;;;4984014;28;20099;-42
2022/05/28 03:01:38;;;;;;;14.40;2.60;;;10.40;99.90;;;;;;4984280;28;20066;-42
2022/05/28 03:04:06;;;;;;;11.00;2.50;;;10.40;99.90;;;;;;4977023;28;20050;-42
2022/05/28 03:06:32;;;;;;;16.02;2.65;;;10.40;99.90;;;;;;4968299;28;20407;-42
2022/05/28 03:08:59;;;;;;;15.80;2.80;;;10.20;99.90;;;;;;4984135;28;20058;-42
2022/05/28 03:11:24;;;;;;;14.18;2.85;;;10.30;99.90;;;;;;4991732;28;20611;-41
2022/05/28 03:13:51;;;;;;;13.85;2.60;;;10.30;99.90;;;;;;4977919;28;20047;-43
2022/05/28 03:16:17;;;;;;;16.20;2.58;;;10.30;99.90;;;;;;4975938;28;20046;-42
2022/05/28 03:18:42;;;;;;;20.17;3.55;;;10.30;99.90;;;;;;4981195;28;20414;-42
2022/05/28 03:21:09;;;;;;;14.07;3.17;;;10.30;99.90;;;;;;4991641;28;20485;-42
2022/05/28 03:23:35;;;;;;;14.93;3.08;;;10.30;99.90;;;;;;4990398;28;20500;-42
2022/05/28 03:26:30;;;;;;;15.70;2.77;;;10.30;99.90;;;;;;4991358;28;20058;-42
2022/05/28 03:28:57;;;;;;;16.57;3.00;;;10.30;99.90;;;;;;4979524;28;20061;-42
2022/05/28 03:31:24;;;;;;;14.00;3.37;;;10.40;99.90;;;;;;4990090;28;20058;-43
2022/05/28 03:33:50;;;;;;;19.52;2.65;;;10.30;99.90;;;;;;4990533;28;20050;-42
2022/05/28 03:36:17;;;;;;;15.65;2.97;;;10.30;99.90;;;;;;4982779;28;20161;-43
2022/05/28 03:38:43;;;;;;;14.48;3.25;;;10.30;99.90;;;;;;4987337;28;20057;-42
2022/05/28 03:41:09;;;;;;;17.60;3.10;;;10.20;99.90;;;;;;4991276;28;20054;-42
2022/05/28 03:43:35;;;;;;;12.90;2.67;;;10.30;99.90;;;;;;4986704;28;20085;-43
2022/05/28 03:46:11;;;;;;;14.68;2.55;;;10.30;99.90;;;;;;4982478;28;20120;-43
2022/05/28 03:48:38;;;;;;;14.43;2.97;;;10.20;99.90;;;;;;4965198;28;20053;-42
2022/05/28 03:51:03;;;;;;;9.77;1.98;;;10.30;99.90;;;;;;4983637;28;20070;-42
2022/05/28 03:53:29;;;;;;;12.90;2.70;;;10.20;99.90;;;;;;4988863;28;20050;-42
2022/05/28 03:55:56;;;;;;;10.20;2.30;;;10.20;99.90;;;;;;4989045;28;20461;-42
2022/05/28 03:58:22;;;;;;;10.23;2.20;;;10.20;99.90;;;;;;4977266;28;20051;-42
2022/05/28 04:00:47;;;;;;;13.38;2.35;;;10.20;99.90;;;;;;4989538;28;20133;-42
2022/05/28 04:03:13;;;;;;;14.30;2.72;;;10.20;99.90;;;;;;4971123;28;20074;-42
2022/05/28 04:05:41;;;;;;;15.32;2.75;;;10.20;99.90;;;;;;4964043;28;20053;-42
2022/05/28 04:08:07;;;;;;;12.38;2.55;;;10.20;99.90;;;;;;4992451;28;20034;-42
2022/05/28 04:10:33;;;;;;;11.75;2.42;;;10.10;99.90;;;;;;4977820;28;20062;-42
2022/05/28 04:12:58;;;;;;;16.88;2.75;;;10.10;99.90;;;;;;4976830;28;20050;-42
2022/05/28 04:15:28;;;;;;;15.52;2.90;;;10.10;99.90;;;;;;4981390;28;20730;-43
2022/05/28 04:17:54;;;;;;;14.50;2.90;;;10.20;99.90;;;;;;4967173;28;20051;-42
2022/05/28 04:20:21;;;;;;;13.23;2.50;;;10.00;99.90;;;;;;4981323;28;20137;-42
2022/05/28 04:22:48;;;;;;;15.30;2.88;;;10.20;99.90;;;;;;4982045;28;20506;-42
2022/05/28 04:25:13;;;;;;;13.68;2.55;;;10.20;99.90;;;;;;4976757;28;20565;-42
2022/05/28 04:27:41;;;;;;;10.90;2.10;;;10.20;99.90;;;;;;4965557;28;20042;-43
2022/05/28 04:30:07;;;;;;;12.85;2.15;;;10.20;99.90;;;;;;4989893;28;20108;-43
2022/05/28 04:32:33;;;;;;;12.47;2.37;;;10.30;99.90;;;;;;4978599;28;20045;-42
2022/05/28 04:34:59;;;;;;;15.23;2.90;;;10.10;99.90;;;;;;5001666;28;20100;-43
2022/05/28 04:37:25;;;;;;;15.23;3.30;;;10.30;99.90;;;;;;4978329;28;20113;-44
2022/05/28 04:39:50;;;;;;;17.07;2.50;;;10.40;99.90;;;;;;4972712;28;20066;-43
2022/05/28 04:42:16;;;;;;;9.80;2.53;;;10.40;99.90;;;;;;4972086;28;20141;-42
2022/05/28 04:44:42;;;;;;;16.08;2.70;;;10.40;99.90;;;;;;4987576;28;20061;-43
2022/05/28 04:47:07;;;;;;;16.38;2.50;;;10.50;99.90;;;;;;4967932;28;20082;-43
2022/05/28 04:49:33;;;;;;;15.48;2.90;;;10.50;99.90;;;;;;4970283;28;20283;-42
2022/05/28 04:52:00;;;;;;;12.68;3.17;;;10.50;99.90;;;;;;4988845;28;20113;-43
2022/05/28 04:54:25;;;;;;;15.13;3.08;;;10.50;99.90;;;;;;4995252;28;20498;-42
2022/05/28 04:56:51;;;;;;;14.75;2.42;;;10.50;99.90;;;;;;4978298;28;20049;-42
2022/05/28 04:59:23;;;;;;;16.15;2.97;;;10.50;99.90;;;;;;4987579;28;20050;-42
2022/05/28 05:01:49;;;;;;;14.68;2.70;;;10.60;99.90;;;;;;4982777;28;20055;-42
2022/05/28 05:04:15;;;;;;;10.77;2.40;;;10.60;99.90;;;;;;4982556;28;20453;-42
2022/05/28 05:06:41;;;;;;;13.60;2.70;;;10.60;99.90;;;;;;4958281;28;20473;-43
2022/05/28 05:09:06;;;;;;;14.23;2.47;;;10.70;99.90;;;;;;4984269;28;20122;-43
2022/05/28 05:11:32;;;;;;;11.93;2.38;;;10.70;99.90;;;;;;4974785;28;20053;-42
2022/05/28 05:13:58;;;;;;;12.63;2.60;;;10.80;99.90;;;;;;4988448;28;20042;-42
2022/05/28 05:16:23;;;;;;;16.58;2.58;;;10.80;99.90;;;;;;4983353;28;20497;-42
2022/05/28 05:18:49;;;;;;;13.95;2.25;;;10.90;99.90;;;;;;4989046;28;20054;-42
2022/05/28 05:21:16;;;;;;;13.40;2.42;;;10.90;99.90;;;;;;4992517;28;20058;-42
2022/05/28 05:23:42;;;;;;;15.00;2.70;;;11.00;99.90;;;;;;4976978;28;20078;-43
2022/05/28 05:26:10;;;;;;;12.23;2.42;;;11.00;99.90;;;;;;4988597;28;20050;-43
2022/05/28 05:28:36;;;;;;;11.48;2.65;;;11.00;99.90;;;;;;4971482;28;20047;-42
2022/05/28 05:31:02;;;;;;;12.27;2.63;;;11.00;99.90;;;;;;4984951;28;20062;-42
2022/05/28 05:33:28;;;;;;;13.73;2.80;;;11.10;99.90;;;;;;4983382;28;20042;-42
2022/05/28 05:35:54;;;;;;;12.20;2.28;;;11.20;99.90;;;;;;4986332;28;20145;-41
2022/05/28 05:38:21;;;;;;;16.27;2.97;;;11.30;99.90;;;;;;4961023;28;20494;-42
2022/05/28 05:40:50;;;;;;;16.95;2.85;;;11.50;99.90;;;;;;4992913;28;20054;-42
2022/05/28 05:43:17;;;;;;;13.27;2.65;;;11.60;99.90;;;;;;4982743;28;20186;-43
2022/05/28 05:45:54;;;;;;;14.25;2.67;;;11.80;99.90;;;;;;4982518;28;20053;-42
2022/05/28 05:48:20;;;;;;;15.82;3.10;;;11.90;99.90;;;;;;4981916;28;20050;-42
2022/05/28 05:51:07;;;;;;;14.35;2.85;;;12.00;99.90;;;;;;4993549;28;20065;-43
2022/05/28 05:53:33;;;;;;;18.80;3.28;;;12.20;99.90;;;;;;4991640;28;20049;-43
2022/05/28 05:55:59;;;;;;;17.38;3.50;;;12.20;99.90;;;;;;4993871;28;20046;-42
2022/05/28 05:58:25;;;;;;;19.40;3.60;;;12.30;99.90;;;;;;4961448;28;20054;-42
2022/05/28 06:00:51;;;;;;;23.52;3.88;;;12.40;99.90;;;;;;4987077;28;20064;-42
2022/05/28 06:03:17;;;;;;;13.55;3.22;;;12.50;99.90;;;;;;4973556;28;20039;-42
2022/05/28 06:05:43;;;;;;;11.60;2.72;;;12.60;99.90;;;;;;4980345;28;20074;-42
2022/05/28 06:08:11;;;;;;;17.05;3.00;;;12.60;99.90;;;;;;4961472;28;20058;-42
2022/05/28 06:10:37;;;;;;;22.40;3.28;;;12.70;99.90;;;;;;4987063;28;20042;-42
2022/05/28 06:13:04;;;;;;;15.57;3.03;;;12.60;99.90;;;;;;4992733;28;20045;-42
2022/05/28 06:15:29;;;;;;;13.13;2.55;;;12.60;99.90;;;;;;4992068;28;20129;-43
2022/05/28 06:17:55;;;;;;;16.45;2.47;;;12.60;99.90;;;;;;4969121;28;20374;-42
2022/05/28 06:20:22;;;;;;;10.43;2.05;;;12.60;99.90;;;;;;4989171;28;20078;-43
2022/05/28 06:22:48;;;;;;;8.75;1.23;;;12.50;99.90;;;;;;4992222;28;20049;-43
2022/05/28 06:25:13;;;;;;;7.47;1.45;;;12.60;99.90;;;;;;4979923;28;20426;-43
2022/05/28 06:27:40;;;;;;;5.78;1.33;;;12.60;99.90;;;;;;4980435;28;20057;-42
2022/05/28 06:30:07;;;;;;;10.52;1.88;;;12.60;99.90;;;;;;4992967;28;20042;-43
2022/05/28 06:32:33;;;;;;;13.43;1.92;;;12.60;99.90;;;;;;4991047;28;20042;-43
2022/05/28 06:34:59;;;;;;;11.93;2.15;;;12.60;99.90;;;;;;4992333;28;20061;-43
2022/05/28 06:37:25;;;;;;;10.27;2.17;;;12.70;99.90;;;;;;4980659;28;20054;-44
2022/05/28 06:39:51;;;;;;;10.95;2.47;;;12.70;99.90;;;;;;4990984;28;20058;-43
2022/05/28 06:42:16;;;;;;;13.90;2.60;;;12.70;99.90;;;;;;4991583;28;20133;-43
2022/05/28 06:44:45;;;;;;;12.52;2.65;;;12.70;99.90;;;;;;4992868;28;20121;-43
2022/05/28 06:47:10;;;;;;;11.00;2.53;;;12.70;99.90;;;;;;4979470;28;20113;-42
2022/05/28 06:49:42;;;;;;;;;;;12.50;99.90;;;;;;4993012;28;20101;-43
2022/05/28 06:52:11;;;;;;;8.90;2.10;;;12.60;99.90;;;;;;4992096;28;20138;-42
2022/05/28 06:54:43;;;;;;;16.00;2.55;;;12.50;99.90;;;;;;4992697;28;20406;-42
2022/05/28 06:57:08;;;;;;;10.50;2.25;;;12.60;99.90;;;;;;4978454;28;20046;-42
2022/05/28 06:59:34;;;;;;;11.65;1.95;;;12.50;99.90;;;;;;4991131;28;20049;-42
2022/05/28 07:02:01;;;;;;;13.40;2.10;;;12.40;99.90;;;;;;4982960;28;20062;-42
2022/05/28 07:04:29;;;;;;;11.52;2.25;;;12.40;99.90;;;;;;4984361;28;20141;-43
2022/05/28 07:06:56;;;;;;;12.60;2.38;;;12.30;99.90;;;;;;4944773;28;20057;-42
2022/05/28 07:09:23;;;;;;;16.17;2.53;;;12.30;99.90;;;;;;4988400;28;20053;-43
2022/05/28 07:11:49;;;;;;;16.45;3.60;;;12.40;99.90;;;;;;4981954;28;20477;-42
2022/05/28 07:14:15;;;;;;;16.48;2.92;;;12.40;99.90;;;;;;4970460;28;20047;-42
2022/05/28 07:16:40;;;;;;;17.70;3.25;;;12.40;99.90;;;;;;4980008;28;20768;-43
2022/05/28 07:19:07;;;;;;;17.35;3.20;;;12.50;99.90;;;;;;4988108;28;20050;-43
2022/05/28 07:21:33;;;;;;;16.90;3.22;;;12.50;99.90;;;;;;4992053;28;20469;-42
2022/05/28 07:24:03;;;;;;;11.98;3.10;;;12.50;99.90;;;;;;4991204;28;20148;-43
2022/05/28 07:26:29;;;;;;;23.40;3.45;;;12.60;99.90;;;;;;4982775;28;20089;-43
2022/05/28 07:28:56;;;;;;;18.77;3.70;;;12.50;99.90;;;;;;4989526;28;20061;-42
2022/05/28 07:31:21;;;;;;;12.98;3.22;;;12.70;99.90;;;;;;4990919;28;20065;-43
2022/05/28 07:33:50;;;;;;;16.92;3.25;;;12.80;99.90;;;;;;4989469;28;20050;-43
2022/05/28 07:36:19;;;;;;;12.02;3.03;;;12.80;99.90;;;;;;4982817;28;20042;-43
2022/05/28 07:38:46;;;;;;;14.30;3.40;;;12.80;99.90;;;;;;4976060;28;20505;-44
2022/05/28 07:41:18;;;;;;;16.48;2.58;;;12.80;99.90;;;;;;4988002;28;20089;-43
2022/05/28 07:43:44;;;;;;;18.95;3.08;;;12.90;99.90;;;;;;4980315;28;20676;-43
2022/05/28 07:46:13;;;;;;;12.55;2.95;;;12.90;99.90;;;;;;4972118;28;20042;-44
2022/05/28 07:48:39;;;;;;;15.13;3.28;;;13.00;99.90;;;;;;4967916;28;20043;-42
2022/05/28 07:51:05;;;;;;;14.52;2.42;;;13.00;99.90;;;;;;4972363;28;20055;-43
2022/05/28 07:53:30;;;;;;;10.13;2.42;;;13.00;99.90;;;;;;4970282;28;20043;-43
2022/05/28 07:55:58;;;;;;;19.30;3.10;;;13.00;99.90;;;;;;4973889;28;20034;-43
2022/05/28 07:58:24;;;;;;;19.00;3.50;;;13.10;99.90;;;;;;4960714;28;20406;-43
2022/05/28 08:00:51;;;;;;;19.38;3.78;;;13.10;99.90;;;;;;4975879;28;20047;-43
2022/05/28 08:03:17;;;;;;;12.27;2.83;;;13.20;99.90;;;;;;4973347;28;20046;-44
2022/05/28 08:05:46;;;;;;;15.02;2.65;;;13.20;99.90;;;;;;4972794;28;20395;-43
2022/05/28 08:08:12;;;;;;;11.32;2.22;;;13.20;99.90;;;;;;4959303;28;20065;-43
2022/05/28 08:10:39;;;;;;;9.50;2.50;;;13.20;99.90;;;;;;4970240;28;20054;-43
2022/05/28 08:13:07;;;;;;;16.05;2.85;;;13.30;99.90;;;;;;4971470;28;20129;-44
2022/05/28 08:15:34;;;;;;;14.30;2.60;;;13.20;99.90;;;;;;4970653;28;20102;-43
2022/05/28 08:18:00;;;;;;;19.35;2.88;;;13.30;99.90;;;;;;4962090;28;20046;-43
2022/05/28 08:23:12;;;;;;;13.88;2.60;;;13.50;99.90;;;;;;4982157;28;20053;-42
2022/05/28 08:25:39;;;;;;;14.07;2.92;;;13.50;99.90;;;;;;4973486;28;20410;-43
2022/05/28 08:28:12;;;;;;;17.52;2.92;;;13.60;99.90;;;;;;4961775;28;20070;-42
2022/05/28 08:30:39;;;;;;;14.40;2.80;;;13.60;99.90;;;;;;4978246;28;20043;-43
2022/05/28 08:33:09;;;;;;;13.73;2.90;;;13.60;99.90;;;;;;4985060;28;20178;-43
2022/05/28 08:35:36;;;;;;;13.25;2.83;;;13.60;99.90;;;;;;4982288;28;20668;-43
2022/05/28 08:38:08;;;;;;;14.32;2.78;;;13.60;99.90;;;;;;4964711;28;20497;-42
2022/05/28 08:40:42;;;;;;;14.63;2.47;;;13.60;99.90;;;;;;4986150;28;20046;-43
2022/05/28 08:43:08;;;;;;;17.10;2.55;;;13.70;99.90;;;;;;4984847;28;20054;-43
2022/05/28 08:45:35;;;;;;;9.75;2.13;;;13.70;99.90;;;;;;4982904;28;20138;-43
2022/05/28 08:48:21;;;;;;;13.52;2.30;;;13.60;99.90;;;;;;4979202;28;20073;-43
2022/05/28 08:50:57;;;;;;;13.20;2.30;;;13.70;99.90;;;;;;4988707;28;20073;-43
2022/05/28 08:53:27;;;;;;;12.73;1.98;;;13.70;99.90;;;;;;4975427;28;20502;-42
2022/05/28 08:55:54;;;;;;;15.68;3.00;;;13.70;99.90;;;;;;4999043;28;20054;-43
2022/05/28 08:58:24;;;;;;;16.27;2.83;;;13.70;99.90;;;;;;4981239;28;20537;-41
2022/05/28 09:01:10;;;;;;;11.90;2.90;;;13.60;99.90;;;;;;4994628;28;20069;-42
2022/05/28 09:03:44;;;;;;;10.90;2.28;;;13.70;99.90;;;;;;4985936;28;20129;-43
2022/05/28 09:06:51;;;;;;;8.25;2.15;;;13.70;99.90;;;;;;4975508;28;20264;-43
2022/05/28 09:09:33;;;;;;;14.77;2.30;;;13.70;99.90;;;;;;4977845;28;20053;-43
2022/05/28 09:12:49;;;;;;;12.85;2.47;;;13.70;99.90;;;;;;4981618;28;20076;-43
2022/05/28 09:15:16;;;;;;;16.10;3.08;;;13.70;99.90;;;;;;4981768;28;20094;-43
2022/05/28 09:17:52;;;;;;;18.52;3.17;;;13.70;99.90;;;;;;4965906;28;20517;-43
2022/05/28 09:20:22;;;;;;;11.13;2.85;;;13.70;99.90;;;;;;4988650;28;20042;-42
2022/05/28 09:22:49;;;;;;;19.08;3.53;;;13.70;99.90;;;;;;4985296;28;20042;-43
2022/05/28 09:25:24;;;;;;;13.73;3.03;;;13.80;99.90;;;;;;4982697;28;20085;-43
2022/05/28 09:28:22;;;;;;;13.10;2.90;;;13.90;99.90;;;;;;4957574;28;20405;-43
2022/05/28 09:30:51;;;;;;;16.52;2.80;;;13.80;99.90;;;;;;4976013;28;20051;-43
2022/05/28 09:33:33;;;;;;;15.60;3.00;;;13.90;99.90;;;;;;4949808;28;20129;-43
2022/05/28 09:36:19;;;;;;;12.50;2.63;;;13.80;99.90;;;;;;4991833;28;20286;-43
2022/05/28 09:38:58;;;;;;;12.52;2.53;;;13.80;99.90;;;;;;4958492;28;20293;-43
2022/05/28 09:41:56;;;;;;;11.55;2.00;;;13.70;99.90;;;;;;4971460;28;20043;-43
2022/05/28 09:44:50;;;;;;;13.65;2.35;;;13.70;99.90;;;;;;4978004;28;20069;-45
2022/05/28 09:47:17;;;;;;;13.35;2.50;;;13.80;99.90;;;;;;4979620;28;20047;-43
2022/05/28 09:49:55;;;;;;;13.15;2.55;;;13.80;99.90;;;;;;4966160;28;20059;-42
2022/05/28 09:52:31;;;;;;;7.53;1.80;;;13.90;99.90;;;;;;4983621;28;20054;-42
2022/05/28 09:55:14;;;;;;;14.20;2.33;;;13.90;99.90;;;;;;4974702;28;20031;-43
2022/05/28 09:57:57;;;;;;;12.25;2.58;;;13.80;99.90;;;;;;4971031;28;20046;-43
2022/05/28 10:00:24;;;;;;;18.02;2.72;;;13.80;99.90;;;;;;4994606;28;20418;-43
2022/05/28 10:05:53;;;;;;;12.35;2.58;;;13.80;99.90;;;;;;4989986;28;20345;-43
2022/05/28 10:08:19;;;;;;;11.77;2.60;;;13.90;99.90;;;;;;4974046;28;20129;-43
2022/05/28 10:10:54;;;;;;;14.13;2.65;;;13.90;99.90;;;;;;4988133;28;20101;-42
2022/05/28 10:13:24;;;;;;;14.57;2.28;;;13.90;99.90;;;;;;4987927;28;20552;-43
2022/05/28 10:15:53;;;;;;;12.35;2.45;;;13.90;99.90;;;;;;4986584;28;20046;-43
2022/05/28 10:18:45;;;;;;;16.42;2.65;;;13.90;99.90;;;;;;4974546;28;20160;-43
2022/05/28 10:21:40;;;;;;;11.77;2.30;;;13.90;99.90;;;;;;4986708;28;20125;-43
2022/05/28 10:24:18;;;;;;;7.10;1.58;;;14.00;99.90;;;;;;4992844;28;20061;-43
2022/05/28 10:26:50;;;;;;;12.43;1.50;;;14.00;99.90;;;;;;4975210;28;20567;-43
2022/05/28 10:29:39;;;;;;;10.57;1.55;;;14.00;99.90;;;;;;4982032;28;20050;-43
2022/05/28 10:32:20;;;;;;;5.38;1.17;;;14.00;99.90;;;;;;4985869;28;20473;-43
2022/05/28 10:34:56;;;;;;;12.52;2.00;;;14.10;99.90;;;;;;4987427;28;20043;-42
2022/05/28 10:37:22;;;;;;;12.15;2.10;;;14.10;99.90;;;;;;4972768;28;20042;-43
2022/05/28 10:39:48;;;;;;;7.95;1.75;;;14.10;99.90;;;;;;4986659;28;20580;-42
2022/05/28 10:42:16;;;;;;;10.55;1.80;;;14.10;99.90;;;;;;4986943;28;20081;-42
2022/05/28 10:44:43;;;;;;;9.63;1.70;;;14.10;99.90;;;;;;4985612;28;20042;-43
2022/05/28 10:47:50;;;;;;;7.20;2.05;;;14.10;99.90;;;;;;4976186;28;20043;-43
2022/05/28 10:50:20;;;;;;;11.15;2.47;;;14.20;99.90;;;;;;5003011;28;20398;-43
2022/05/28 10:52:49;;;;;;;10.27;2.20;;;14.10;99.90;;;;;;4987053;28;20038;-43
2022/05/28 10:55:51;;;;;;;7.18;1.65;;;14.20;99.90;;;;;;4988182;28;20194;-43
2022/05/28 10:58:40;;;;;;;12.25;1.80;;;14.30;99.90;;;;;;4985681;28;20050;-43
2022/05/28 11:01:15;;;;;;;9.68;1.65;;;14.30;99.90;;;;;;4988239;28;20486;-43
2022/05/28 11:04:05;;;;;;;16.60;1.83;;;14.30;99.90;;;;;;4978195;28;20058;-43
2022/05/28 11:06:53;;;;;;;9.83;1.93;;;14.30;99.90;;;;;;4959575;28;20455;-43
2022/05/28 11:09:27;;;;;;;10.95;1.67;;;14.30;99.90;;;;;;4966160;28;20294;-43
2022/05/28 11:12:04;;;;;;;10.50;1.95;;;14.30;99.90;;;;;;4966987;28;20398;-43
2022/05/28 11:15:15;;;;;;;9.35;1.83;;;14.40;99.90;;;;;;4979534;28;20050;-43
2022/05/28 11:18:07;;;;;;;9.32;2.17;;;14.40;99.90;;;;;;4970080;28;20042;-43
2022/05/28 11:21:18;;;;;;;11.40;2.22;;;14.50;99.90;;;;;;4987732;28;20583;-43
2022/05/28 11:24:04;;;;;;;12.63;2.07;;;14.50;99.90;;;;;;4983892;28;20640;-43
2022/05/28 11:26:51;;;;;;;12.80;2.33;;;14.50;99.90;;;;;;4973592;28;20126;-43
2022/05/28 11:29:20;;;;;;;13.45;2.63;;;14.50;99.90;;;;;;4982810;28;20050;-43
2022/05/28 11:32:04;;;;;;;11.48;2.35;;;14.40;99.90;;;;;;4982940;28;20061;-43
2022/05/28 11:34:51;;;;;;;14.30;2.80;;;14.30;99.90;;;;;;4969463;28;20089;-43
2022/05/28 11:37:40;;;;;;;15.68;2.72;;;14.20;99.90;;;;;;4957767;28;20038;-42
2022/05/28 11:40:21;;;;;;;13.15;2.38;;;14.20;99.90;;;;;;4951923;28;20061;-43
2022/05/28 11:43:16;;;;;;;12.40;2.25;;;14.20;99.90;;;;;;4968248;28;20043;-43
2022/05/28 11:45:46;;;;;;;11.30;2.78;;;14.20;99.90;;;;;;4954215;28;20553;-43
2022/05/28 11:52:12;;;;;;;10.68;2.63;;;14.10;99.90;;;;;;4968065;28;20113;-43
2022/05/28 11:54:47;;;;;;;10.70;2.22;;;14.20;99.90;;;;;;4967766;28;20042;-43
2022/05/28 11:57:44;;;;;;;11.75;2.55;;;14.20;99.90;;;;;;4959528;28;20132;-44
2022/05/28 12:00:14;;;;;;;12.27;2.58;;;14.30;99.90;;;;;;4969078;28;20059;-43
2022/05/28 12:03:16;;;;;;;13.45;2.70;;;14.40;99.90;;;;;;4968403;28;20101;-43
2022/05/28 12:05:49;;;;;;;11.32;2.10;;;14.60;99.90;;;;;;4974773;28;20066;-43
2022/05/28 12:08:28;;;;;;;10.18;2.20;;;14.60;99.90;;;;;;4959716;28;20525;-43
2022/05/28 12:11:01;;;;;;;10.25;1.95;;;14.70;99.90;;;;;;4969673;28;20142;-43
2022/05/28 12:13:48;;;;;;;12.60;2.20;;;14.70;99.90;;;;;;4968073;28;20394;-43
2022/05/28 12:16:25;;;;;;;12.68;2.10;;;14.70;99.90;;;;;;4960894;28;20380;-42
2022/05/28 12:19:01;;;;;;;15.18;2.33;;;14.80;99.90;;;;;;4963265;28;20530;-43
2022/05/28 12:21:38;;;;;;;11.45;2.10;;;14.70;99.90;;;;;;4968395;28;20046;-43
2022/05/28 12:24:10;;;;;;;15.13;2.60;;;14.70;99.90;;;;;;4966851;28;20047;-43
2022/05/28 12:27:13;;;;;;;10.48;2.20;;;14.70;99.90;;;;;;4945730;28;20316;-43
2022/05/28 12:29:58;;;;;;;10.93;1.70;;;14.80;99.90;;;;;;4978641;28;20426;-43
2022/05/28 12:32:29;;;;;;;11.10;1.90;;;14.80;99.90;;;;;;4978275;28;20129;-43
2022/05/28 12:35:07;;;;;;;7.90;1.73;;;14.80;99.90;;;;;;4981871;28;20120;-43
2022/05/28 12:37:35;;;;;;;8.77;1.50;;;14.90;99.90;;;;;;4968882;28;20062;-43
2022/05/28 12:40:28;;;;;;;10.13;1.98;;;15.00;99.90;;;;;;4972872;28;20046;-43
2022/05/28 12:42:58;;;;;;;11.07;2.53;;;15.10;99.90;;;;;;4971335;28;20043;-43
2022/05/28 12:45:37;;;;;;;9.13;2.00;;;15.20;99.90;;;;;;4971760;28;20514;-43
2022/05/28 12:48:06;;;;;;;10.50;1.75;;;15.20;99.90;;;;;;4959516;28;20055;-42
2022/05/28 12:50:46;;;;;;;9.85;1.63;;;15.20;99.90;;;;;;4976138;28;20561;-42
2022/05/28 12:53:20;;;;;;;10.85;1.65;;;15.30;99.90;;;;;;4982413;28;20070;-42
2022/05/28 12:55:58;;;;;;;10.90;1.60;;;15.30;99.90;;;;;;4979319;28;20113;-42
2022/05/28 12:58:42;;;;;;;8.30;1.85;;;15.40;99.90;;;;;;4974399;28;20130;-42
2022/05/28 13:01:37;;;;;;;10.60;1.85;;;15.40;99.90;;;;;;4985534;28;20046;-43
2022/05/28 13:04:20;;;;;;;7.82;1.65;;;15.30;99.90;;;;;;4986190;28;20046;-42
2022/05/28 13:06:50;;;;;;;10.30;1.92;;;15.30;99.90;;;;;;4978681;28;20062;-43
2022/05/28 13:09:22;;;;;;;11.38;2.00;;;15.30;99.90;;;;;;4985431;28;20047;-43
2022/05/28 13:11:59;;;;;;;7.88;1.70;;;15.30;99.90;;;;;;4976667;28;20117;-44